Time;durP1;ratioP1;P1;durP2;ratioP2;P2;SDS_P1;SDS_P2;PMS_P1;PMS_P2;Temp;Humidity;BMP_temperature;BMP_pressure;BME280_temperature;BME280_humidity;BME280_pressure;Samples;Min_cycle;Max_cycle;Signal;HPM_P1;HPM_P2
2022/12/25 00:01:51;;;;;;;6.20;2.58;;;;;;;10.59;75.83;100804.19;4197118;28;20045;-69
2022/12/25 00:03:56;;;;;;;8.13;3.50;;;;;;;10.61;75.66;100817.22;4195681;28;20036;-69
2022/12/25 00:05:59;;;;;;;9.05;4.22;;;;;;;10.57;76.03;100821.50;4197172;28;20040;-68
2022/12/25 00:08:02;;;;;;;7.18;3.55;;;;;;;10.55;76.28;100817.97;4196969;28;20045;-68
2022/12/25 00:10:08;;;;;;;11.15;3.80;;;;;;;10.58;76.35;100819.78;4195662;28;20123;-68
2022/12/25 00:12:11;;;;;;;8.95;3.35;;;;;;;10.56;76.59;100824.06;4196978;28;20037;-69
2022/12/25 00:14:14;;;;;;;8.98;3.80;;;;;;;10.59;76.01;100819.81;4178835;28;20588;-69
2022/12/25 00:16:20;;;;;;;10.57;4.40;;;;;;;10.63;76.21;100807.72;4196994;28;20029;-69
2022/12/25 00:18:23;;;;;;;9.95;3.10;;;;;;;10.61;76.46;100804.22;4195698;28;20498;-68
2022/12/25 00:20:26;;;;;;;5.35;2.53;;;;;;;10.61;75.65;100801.63;4195729;28;20094;-68
2022/12/25 00:22:29;;;;;;;5.80;2.78;;;;;;;10.61;76.60;100796.44;4191003;28;20419;-69
2022/12/25 00:24:32;;;;;;;9.18;3.50;;;;;;;10.63;75.64;100795.63;4195170;28;20526;-68
2022/12/25 00:26:36;;;;;;;10.25;4.32;;;;;;;10.69;75.82;100793.97;4196826;28;20036;-68
2022/12/25 00:28:39;;;;;;;13.93;6.15;;;;;;;10.66;75.95;100792.22;4197000;28;20033;-69
2022/12/25 00:30:42;;;;;;;8.43;3.42;;;;;;;10.67;76.13;100796.53;4197214;28;20436;-68
2022/12/25 00:32:45;;;;;;;14.32;4.53;;;;;;;10.69;75.62;100793.97;4197331;28;20037;-69
2022/12/25 00:34:48;;;;;;;14.68;4.55;;;;;;;10.68;75.49;100795.69;4197598;28;20659;-69
2022/12/25 00:36:51;;;;;;;8.57;3.78;;;;;;;10.65;76.44;100787.84;4197489;28;20040;-68
2022/12/25 00:38:54;;;;;;;9.63;3.30;;;;;;;10.67;75.77;100787.88;4197541;28;20039;-69
2022/12/25 00:40:56;;;;;;;6.95;3.10;;;;;;;10.63;75.87;100779.13;4196663;28;20040;-69
2022/12/25 00:43:00;;;;;;;9.73;3.97;;;;;;;10.62;75.67;100780.00;4197792;28;20055;-69
2022/12/25 00:45:04;;;;;;;6.03;2.72;;;;;;;10.65;75.43;100780.06;4196371;28;20107;-69
2022/12/25 00:47:07;;;;;;;6.03;2.63;;;;;;;10.61;76.54;100786.03;4198016;28;20035;-68
2022/12/25 00:49:11;;;;;;;10.57;3.53;;;;;;;10.63;76.22;100779.13;4197330;28;20032;-69
2022/12/25 00:51:14;;;;;;;5.38;2.20;;;;;;;10.62;75.83;100780.00;4193944;28;20043;-68
2022/12/25 00:53:16;;;;;;;8.13;3.00;;;;;;;10.62;76.13;100777.41;4198223;28;20047;-68
2022/12/25 00:55:19;;;;;;;6.25;2.75;;;;;;;10.61;76.34;100776.50;4198664;28;20040;-69
2022/12/25 00:57:22;;;;;;;6.65;2.90;;;;;;;10.61;76.20;100786.91;4199810;28;20490;-69
2022/12/25 00:59:26;;;;;;;5.03;2.33;;;;;;;10.61;75.96;100792.09;4199758;28;20599;-69
2022/12/25 01:01:29;;;;;;;8.05;2.33;;;;;;;10.59;76.33;100783.41;4199767;28;20036;-69
2022/12/25 01:03:32;;;;;;;7.05;2.58;;;;;;;10.63;76.79;100784.31;4198125;28;20055;-70
2022/12/25 01:05:35;;;;;;;8.95;3.60;;;;;;;10.61;76.16;100791.22;4193588;28;20037;-71
2022/12/25 01:07:38;;;;;;;10.70;2.78;;;;;;;10.61;76.86;100786.91;4198199;28;20032;-71
2022/12/25 01:12:01;;;;;;;11.63;3.80;;;;;;;10.60;76.49;100798.16;4198429;28;20052;-71
2022/12/25 01:14:04;;;;;;;7.22;3.47;;;;;;;10.61;76.41;100796.44;4196541;28;20676;-70
2022/12/25 01:16:10;;;;;;;11.00;4.30;;;;;;;10.61;76.10;100804.22;4198042;28;20094;-69
2022/12/25 01:18:14;;;;;;;8.75;3.80;;;;;;;10.61;76.14;100810.28;4199418;28;20074;-71
2022/12/25 01:20:18;;;;;;;8.15;4.40;;;;;;;10.62;76.28;100809.47;4199557;28;20449;-71
2022/12/25 01:22:21;;;;;;;7.57;2.50;;;;;;;10.62;76.79;100806.00;4199448;28;20048;-70
2022/12/25 01:24:23;;;;;;;5.88;2.40;;;;;;;10.64;76.27;100812.09;4199102;28;20452;-71
2022/12/25 01:26:27;;;;;;;6.85;2.55;;;;;;;10.65;76.71;100803.44;4198207;28;20132;-70
2022/12/25 01:28:30;;;;;;;8.13;2.42;;;;;;;10.63;76.63;100800.81;4199407;28;20037;-71
2022/12/25 01:30:34;;;;;;;9.60;2.40;;;;;;;10.60;76.68;100800.78;4191560;28;20040;-70
2022/12/25 01:32:38;;;;;;;6.68;2.00;;;;;;;10.62;76.43;100813.78;4199098;28;20544;-70
2022/12/25 01:34:41;;;;;;;3.70;2.08;;;;;;;10.59;76.28;100814.59;4182417;28;20049;-74
2022/12/25 01:36:44;;;;;;;5.43;2.33;;;;;;;10.63;76.90;100815.53;4182600;28;20041;-70
2022/12/25 01:38:47;;;;;;;8.60;2.55;;;;;;;10.63;76.40;100828.53;4182685;28;20106;-70
2022/12/25 01:40:50;;;;;;;4.60;1.80;;;;;;;10.62;76.67;100824.19;4182681;28;20127;-70
2022/12/25 01:42:52;;;;;;;6.70;2.47;;;;;;;10.69;76.07;100831.28;4182770;28;20098;-70
2022/12/25 01:45:36;;;;;;;5.82;2.50;;;;;;;10.68;76.33;100828.63;4185920;28;20086;-70
2022/12/25 01:47:40;;;;;;;7.38;2.20;;;;;;;10.69;76.31;100826.06;4199010;28;20028;-70
2022/12/25 01:49:46;;;;;;;10.80;2.75;;;;;;;10.68;75.86;100816.50;4197727;28;20114;-70
2022/12/25 01:51:54;;;;;;;8.88;2.72;;;;;;;10.65;76.52;100819.91;4197211;28;20071;-70
2022/12/25 01:53:59;;;;;;;8.48;3.00;;;;;;;10.62;76.61;100819.88;4194017;28;20510;-69
2022/12/25 01:56:06;;;;;;;4.82;2.10;;;;;;;10.63;76.72;100820.72;4197128;28;20051;-69
2022/12/25 01:58:09;;;;;;;7.05;2.35;;;;;;;10.63;76.02;100815.53;4197494;28;20556;-69
2022/12/25 02:00:15;;;;;;;6.72;2.40;;;;;;;10.65;76.18;100804.31;4197579;28;20041;-69
2022/12/25 02:02:18;;;;;;;4.35;2.05;;;;;;;10.63;76.28;100802.53;4197212;28;20037;-69
2022/12/25 02:04:37;;;;;;;7.85;2.45;;;;;;;10.63;76.64;100803.44;4197647;28;20656;-69
2022/12/25 02:06:41;;;;;;;7.85;2.53;;;;;;;10.54;76.58;100799.75;4197756;28;20047;-69
2022/12/25 02:08:44;;;;;;;8.48;2.58;;;;;;;10.52;76.90;100806.66;4198657;28;20036;-70
2022/12/25 02:10:48;;;;;;;6.63;2.08;;;;;;;10.53;76.68;100803.19;4197673;28;20040;-70
2022/12/25 02:12:51;;;;;;;5.05;2.63;;;;;;;10.54;76.43;100794.56;4195323;28;20036;-72
2022/12/25 02:14:58;;;;;;;6.30;2.42;;;;;;;10.52;76.74;100791.06;4196417;28;20052;-69
2022/12/25 02:17:13;;;;;;;8.02;2.75;;;;;;;10.52;76.58;100788.47;4187890;28;21903;-69
2022/12/25 02:19:31;;;;;;;8.07;2.80;;;;;;;10.52;76.39;100780.66;4186668;28;20120;-71
2022/12/25 02:21:59;;;;;;;8.75;2.95;;;;;;;10.54;76.68;100784.16;4197557;28;20040;-70
2022/12/25 02:24:27;;;;;;;6.97;2.38;;;;;;;10.51;76.85;100789.31;4195917;28;20144;-68
2022/12/25 02:26:57;;;;;;;8.68;3.58;;;;;;;10.48;76.45;100778.00;4194144;28;20032;-69
2022/12/25 02:29:09;;;;;;;8.45;3.20;;;;;;;10.45;76.32;100770.16;4184159;28;20075;-69
2022/12/25 02:31:17;;;;;;;7.25;2.97;;;;;;;10.46;76.90;100771.03;4196860;28;20078;-69
2022/12/25 02:35:53;;;;;;;3.50;2.30;;;;;;;10.43;76.44;100770.97;4197514;28;20036;-69
2022/12/25 02:38:03;;;;;;;8.32;3.03;;;;;;;10.42;76.30;100772.66;4192939;28;20093;-69
2022/12/25 02:40:13;;;;;;;10.30;3.15;;;;;;;10.45;76.51;100774.47;4197011;28;20041;-70
2022/12/25 03:06:41;;;;;;;6.82;2.55;;;;;;;10.45;76.65;100777.94;4206799;28;20501;-69
2022/12/25 03:06:45;;;;;;;6.37;2.23;;;;;;;10.38;76.75;100731.00;4196310;28;20040;-70
2022/12/25 03:08:53;;;;;;;8.38;2.75;;;;;;;10.38;76.58;100733.59;4196338;28;20134;-70
2022/12/25 03:13:26;;;;;;;10.88;3.55;;;;;;;10.44;76.06;100736.31;4196618;28;20039;-70
2022/12/25 03:17:49;;;;;;;13.40;3.42;;;;;;;10.29;76.46;100726.47;4187710;28;20048;-70
2022/12/25 03:27:01;;;;;;;15.75;3.90;;;;;;;10.35;75.92;100710.16;4194901;28;20504;-70
2022/12/25 03:29:04;;;;;;;7.85;3.10;;;;;;;10.33;75.73;100712.69;4194846;28;20055;-70
2022/12/25 03:31:13;;;;;;;10.75;3.28;;;;;;;10.30;75.35;100713.50;4194438;28;20044;-70
2022/12/25 03:33:23;;;;;;;12.07;3.70;;;;;;;10.28;75.56;100711.75;4194675;28;20060;-69
2022/12/25 03:36:01;;;;;;;9.30;3.63;;;;;;;10.26;75.80;100719.47;4196639;28;20036;-69
2022/12/25 04:37:55;;;;;;;9.32;3.80;;;;;;;10.50;75.04;100704.34;4189087;28;20124;-72
2022/12/25 04:39:57;;;;;;;8.85;3.30;;;;;;;10.50;74.84;100710.44;4195407;28;20044;-70
2022/12/25 04:42:00;;;;;;;7.95;3.28;;;;;;;10.54;74.67;100700.97;4191353;28;20048;-70
2022/12/25 04:44:03;;;;;;;6.18;2.67;;;;;;;10.52;74.87;100703.53;4195162;28;20478;-70
2022/12/25 04:46:06;;;;;;;9.30;3.03;;;;;;;10.51;74.97;100703.53;4194134;28;20043;-70
2022/12/25 04:48:09;;;;;;;8.27;2.92;;;;;;;10.50;75.31;100688.75;4195637;28;20072;-70
2022/12/25 04:50:12;;;;;;;7.18;2.85;;;;;;;10.50;75.38;100688.75;4195240;28;20037;-70
2022/12/25 04:52:15;;;;;;;8.63;3.05;;;;;;;10.48;75.64;100696.53;4196293;28;20040;-70
2022/12/25 04:54:19;;;;;;;10.40;3.53;;;;;;;10.53;74.80;100692.31;4184030;28;20040;-70
2022/12/25 04:56:23;;;;;;;8.02;2.80;;;;;;;10.52;75.77;100697.47;4182606;28;20036;-70
2022/12/25 04:58:25;;;;;;;9.13;3.13;;;;;;;10.55;74.93;100692.34;4195437;28;20086;-69
2022/12/25 05:00:28;;;;;;;6.20;2.92;;;;;;;10.53;75.58;100689.72;4196630;28;20044;-70
2022/12/25 05:02:32;;;;;;;7.80;3.38;;;;;;;10.56;75.39;100683.69;4196613;28;20125;-71
2022/12/25 05:04:35;;;;;;;11.10;3.78;;;;;;;10.58;75.51;100687.19;4196277;28;20051;-70
2022/12/25 05:06:39;;;;;;;11.13;4.65;;;;;;;10.59;75.18;100683.75;4196621;28;20044;-70
2022/12/25 05:08:41;;;;;;;6.82;3.15;;;;;;;10.63;74.96;100693.31;4196839;28;20045;-69
2022/12/25 05:10:46;;;;;;;10.60;3.13;;;;;;;10.62;75.09;100686.41;4193063;28;20070;-69
2022/12/25 05:12:48;;;;;;;9.13;3.65;;;;;;;10.59;75.29;100688.94;4196500;28;20044;-70
2022/12/25 05:14:51;;;;;;;8.77;3.55;;;;;;;10.62;75.06;100684.66;4196037;28;20094;-69
2022/12/25 05:16:54;;;;;;;9.73;3.85;;;;;;;10.57;74.54;100683.72;4195380;28;20040;-69
2022/12/25 05:18:57;;;;;;;7.10;3.10;;;;;;;10.56;75.10;100688.91;4197214;28;20040;-69
2022/12/25 05:21:00;;;;;;;9.57;3.80;;;;;;;10.55;75.08;100692.34;4198336;28;20445;-69
2022/12/25 05:23:03;;;;;;;8.32;3.17;;;;;;;10.54;74.77;100688.88;4199476;28;20047;-69
2022/12/25 05:25:06;;;;;;;6.53;2.88;;;;;;;10.54;75.18;100690.56;4194040;28;20399;-69
2022/12/25 05:27:11;;;;;;;6.47;3.33;;;;;;;10.56;74.82;100686.28;4181488;28;20041;-69
2022/12/25 05:29:13;;;;;;;7.35;3.30;;;;;;;10.53;75.45;100671.50;4199415;28;20039;-70
2022/12/25 05:31:17;;;;;;;9.65;3.42;;;;;;;10.52;75.43;100666.28;4198016;28;20441;-69
2022/12/25 05:33:20;;;;;;;9.32;4.13;;;;;;;10.53;74.92;100668.03;4196918;28;20037;-69
2022/12/25 05:35:23;;;;;;;8.10;2.95;;;;;;;10.54;75.63;100664.56;4199154;28;20037;-69
2022/12/25 05:37:25;;;;;;;6.47;3.60;;;;;;;10.56;75.52;100674.16;4196758;28;20102;-69
2022/12/25 05:39:29;;;;;;;7.03;3.20;;;;;;;10.56;75.25;100668.97;4195208;28;20037;-69
2022/12/25 05:41:31;;;;;;;5.20;2.97;;;;;;;10.58;75.61;100669.00;4193337;28;20063;-69
2022/12/25 05:43:37;;;;;;;;;;;;;;;10.46;75.35;100667.06;4195433;28;20556;-69
2022/12/25 05:45:40;;;;;;;7.30;3.03;;;;;;;10.47;75.13;100667.06;4195509;28;19927;-69
2022/12/25 05:47:43;;;;;;;7.85;3.33;;;;;;;10.54;75.32;100664.56;4191369;28;20049;-69
2022/12/25 05:49:46;;;;;;;7.95;3.40;;;;;;;10.60;74.88;100659.47;4197845;28;20040;-69
2022/12/25 05:51:49;;;;;;;7.78;3.35;;;;;;;10.61;74.61;100663.84;4198120;28;20032;-67
2022/12/25 05:53:52;;;;;;;7.20;3.63;;;;;;;10.60;75.14;100665.56;4194654;28;20044;-69
2022/12/25 05:55:54;;;;;;;7.22;3.03;;;;;;;10.58;75.06;100676.78;4195301;28;20071;-68
2022/12/25 05:57:57;;;;;;;4.95;2.63;;;;;;;10.56;75.24;100675.91;4198783;28;20044;-69
2022/12/25 06:00:01;;;;;;;8.13;3.00;;;;;;;10.60;74.90;100680.28;4197562;28;20114;-69
2022/12/25 06:02:14;;;;;;;6.05;3.20;;;;;;;10.59;74.48;100681.16;4193890;28;20036;-68
2022/12/25 06:04:17;;;;;;;10.38;2.92;;;;;;;10.64;75.05;100679.50;4196142;28;20044;-68
2022/12/25 06:06:20;;;;;;;7.80;3.58;;;;;;;10.64;74.99;100682.09;4177908;28;20048;-69
2022/12/25 06:08:22;;;;;;;8.07;3.40;;;;;;;10.60;75.15;100685.47;4194757;28;20044;-68
2022/12/25 06:10:25;;;;;;;8.60;3.38;;;;;;;10.62;74.44;100673.41;4197719;28;20449;-68
2022/12/25 06:12:28;;;;;;;5.72;2.83;;;;;;;10.64;74.85;100672.59;4197014;28;20043;-69
2022/12/25 06:14:31;;;;;;;6.78;3.03;;;;;;;10.64;74.49;100669.09;4196819;28;20034;-69
2022/12/25 06:16:35;;;;;;;7.90;2.63;;;;;;;10.67;74.53;100668.28;4198261;28;20041;-68
2022/12/25 06:18:43;;;;;;;5.45;3.13;;;;;;;10.61;74.66;100659.50;4197507;28;20051;-68
2022/12/25 06:20:46;;;;;;;4.85;2.50;;;;;;;10.62;74.33;100668.19;4190616;28;20510;-68
2022/12/25 06:22:49;;;;;;;7.32;2.78;;;;;;;10.62;74.49;100658.66;4182139;28;20045;-69
2022/12/25 06:24:53;;;;;;;6.43;2.65;;;;;;;10.63;74.64;100659.53;4196953;28;20556;-69
2022/12/25 06:26:56;;;;;;;6.82;3.05;;;;;;;10.64;74.78;100656.09;4198568;28;20127;-69
2022/12/25 06:28:58;;;;;;;5.60;2.70;;;;;;;10.65;74.59;100655.25;4198565;28;20044;-69
2022/12/25 06:31:06;;;;;;;6.28;3.20;;;;;;;10.63;74.89;100646.53;4197413;28;20040;-68
2022/12/25 06:33:10;;;;;;;6.65;2.78;;;;;;;10.63;74.92;100646.53;4192623;28;20036;-69
2022/12/25 06:35:13;;;;;;;4.50;2.42;;;;;;;10.62;75.21;100644.81;4196862;28;20044;-69
2022/12/25 06:37:16;;;;;;;8.80;2.75;;;;;;;10.63;75.21;100650.03;4198396;28;20047;-69
2022/12/25 06:39:20;;;;;;;6.13;2.50;;;;;;;10.62;74.77;100650.00;4198237;28;20078;-69
2022/12/25 06:41:25;;;;;;;7.82;3.25;;;;;;;10.61;75.04;100646.50;4198341;28;20513;-68
2022/12/25 06:43:27;;;;;;;;;;;;;;;10.52;75.47;100650.69;4198713;28;20041;-69
2022/12/25 06:45:30;;;;;;;7.28;2.42;;;;;;;10.52;74.92;100653.28;4194731;28;19920;-68
2022/12/25 06:47:33;;;;;;;7.70;2.85;;;;;;;10.52;74.88;100648.09;4185447;28;20037;-69
2022/12/25 06:49:37;;;;;;;5.85;2.65;;;;;;;10.50;75.57;100649.78;4190425;28;20037;-69
2022/12/25 06:51:40;;;;;;;6.50;2.85;;;;;;;10.52;75.29;100648.09;4196824;28;20032;-69
2022/12/25 06:53:43;;;;;;;3.53;2.20;;;;;;;10.50;75.16;100645.47;4195078;28;20029;-69
2022/12/25 06:55:46;;;;;;;4.63;3.03;;;;;;;10.50;74.82;100648.06;4198036;28;20061;-69
2022/12/25 06:57:49;;;;;;;3.35;2.20;;;;;;;10.51;75.38;100655.00;4198033;28;20036;-69
2022/12/25 06:59:51;;;;;;;7.75;2.80;;;;;;;10.52;75.25;100655.88;4197907;28;20486;-68
2022/12/25 07:01:57;;;;;;;3.25;2.15;;;;;;;10.53;75.52;100647.22;4190831;28;20068;-68
2022/12/25 07:04:05;;;;;;;5.70;2.80;;;;;;;10.56;75.26;100647.31;4197419;28;20110;-68
2022/12/25 07:06:09;;;;;;;5.20;2.50;;;;;;;10.54;75.10;100656.78;4196670;28;20494;-69
2022/12/25 07:08:12;;;;;;;6.78;2.53;;;;;;;10.55;75.17;100655.94;4197932;28;20037;-68
2022/12/25 07:10:15;;;;;;;6.35;2.25;;;;;;;10.54;74.68;100648.97;4197836;28;20033;-68
2022/12/25 07:12:20;;;;;;;6.75;2.53;;;;;;;10.57;74.85;100644.72;4195530;28;20123;-68
2022/12/25 07:14:23;;;;;;;4.60;2.88;;;;;;;10.57;74.49;100646.44;4178103;28;20064;-68
2022/12/25 07:16:26;;;;;;;4.20;2.08;;;;;;;10.56;74.91;100639.50;4191206;28;20083;-68
2022/12/25 07:18:30;;;;;;;3.33;2.22;;;;;;;10.55;75.17;100629.94;4192216;28;20123;-69
2022/12/25 07:20:33;;;;;;;9.07;3.95;;;;;;;10.54;75.42;100623.00;4194523;28;20394;-69
2022/12/25 07:22:37;;;;;;;5.07;2.30;;;;;;;10.48;75.63;100616.84;4197528;28;20436;-68
2022/12/25 07:24:40;;;;;;;3.97;2.08;;;;;;;10.47;75.31;100612.50;4197249;28;20415;-68
2022/12/25 07:26:42;;;;;;;5.72;2.53;;;;;;;10.46;74.94;100621.13;4197631;28;20036;-68
2022/12/25 07:28:45;;;;;;;5.63;2.30;;;;;;;10.47;75.84;100612.50;4197495;28;20055;-68
2022/12/25 07:30:49;;;;;;;4.80;2.20;;;;;;;10.47;75.43;100617.69;4197561;28;20486;-68
2022/12/25 07:32:51;;;;;;;4.63;2.20;;;;;;;10.52;75.30;100619.50;4196499;28;20498;-68
2022/12/25 07:34:54;;;;;;;4.88;2.28;;;;;;;10.53;75.17;100616.03;4196848;28;20040;-69
2022/12/25 07:36:57;;;;;;;7.97;2.70;;;;;;;10.58;75.19;100604.84;4196217;28;20102;-69
2022/12/25 07:39:01;;;;;;;4.53;2.38;;;;;;;10.57;74.49;100631.72;4193869;28;20044;-69
2022/12/25 07:41:07;;;;;;;5.78;1.73;;;;;;;10.53;74.96;100622.13;4197280;28;20047;-68
2022/12/25 07:43:10;;;;;;;7.15;2.70;;;;;;;10.54;75.39;100623.88;4196961;28;20094;-68
2022/12/25 07:45:13;;;;;;;5.90;3.28;;;;;;;10.55;75.34;100620.41;4197165;28;20522;-69
2022/12/25 07:47:16;;;;;;;6.72;3.15;;;;;;;10.57;75.37;100615.25;4196136;28;20067;-70
2022/12/25 07:49:19;;;;;;;5.10;2.97;;;;;;;10.60;74.94;100617.88;4197369;28;20149;-69
2022/12/25 07:51:22;;;;;;;7.15;2.70;;;;;;;10.56;75.03;100622.16;4197330;28;20040;-68
2022/12/25 07:53:26;;;;;;;4.82;2.63;;;;;;;10.59;75.02;100626.56;4196055;28;20114;-68
2022/12/25 07:55:30;;;;;;;5.55;2.30;;;;;;;10.60;75.37;100630.88;4195953;28;20533;-69
2022/12/25 07:57:35;;;;;;;6.65;2.28;;;;;;;10.56;75.30;100652.50;4179388;28;20041;-69
2022/12/25 07:59:37;;;;;;;5.32;2.63;;;;;;;10.43;75.20;100657.47;4197291;28;20070;-69
2022/12/25 08:01:40;;;;;;;6.50;2.42;;;;;;;10.36;75.41;100666.00;4191752;28;20037;-69
2022/12/25 08:03:48;;;;;;;3.70;2.22;;;;;;;10.39;75.70;100655.66;4196758;28;20037;-69
2022/12/25 08:05:51;;;;;;;6.05;2.80;;;;;;;10.43;75.40;100646.22;4196085;28;20033;-69
2022/12/25 08:07:54;;;;;;;5.72;1.95;;;;;;;10.50;75.72;100639.38;4195690;28;20071;-68
2022/12/25 08:09:59;;;;;;;6.80;2.60;;;;;;;10.60;74.86;100633.47;4189051;28;20044;-69
2022/12/25 08:12:04;;;;;;;5.25;2.33;;;;;;;10.64;74.79;100625.78;4197032;28;20044;-69
2022/12/25 08:14:08;;;;;;;4.00;2.03;;;;;;;10.63;75.05;100630.94;4196804;28;20124;-68
2022/12/25 08:16:14;;;;;;;4.93;1.90;;;;;;;10.65;75.53;100617.13;4195886;28;20036;-68
2022/12/25 08:18:18;;;;;;;;;;;;;;;10.61;75.39;100617.03;4197535;28;20067;-69
2022/12/25 08:20:27;;;;;;;6.70;1.98;;;;;;;10.60;75.75;100610.09;4196983;28;19927;-69
2022/12/25 08:22:30;;;;;;;5.25;1.83;;;;;;;10.62;74.88;100605.81;4194636;28;20041;-68
2022/12/25 08:24:33;;;;;;;3.67;1.90;;;;;;;10.59;75.52;100614.41;4195152;28;20047;-69
2022/12/25 08:26:36;;;;;;;4.93;2.00;;;;;;;10.57;75.03;100620.44;4196871;28;20059;-68
2022/12/25 08:28:40;;;;;;;5.85;2.10;;;;;;;10.57;75.27;100613.53;4197164;28;20052;-68
2022/12/25 08:30:43;;;;;;;5.75;2.22;;;;;;;10.60;75.44;100620.47;4196989;28;20040;-69
2022/12/25 08:32:46;;;;;;;4.90;1.92;;;;;;;10.63;75.44;100618.81;4195775;28;20581;-68
2022/12/25 08:34:49;;;;;;;4.05;1.90;;;;;;;10.63;75.33;100607.53;4195156;28;20048;-69
2022/12/25 08:36:52;;;;;;;3.42;1.90;;;;;;;10.63;75.77;100615.31;4193874;28;20051;-69
2022/12/25 08:38:55;;;;;;;3.67;1.70;;;;;;;10.64;75.97;100614.50;4196688;28;20487;-68
2022/12/25 08:41:05;;;;;;;4.45;1.90;;;;;;;10.63;75.22;100597.13;4196817;28;20040;-69
2022/12/25 08:43:08;;;;;;;4.07;1.90;;;;;;;10.65;75.97;100572.06;4195356;28;20040;-69
2022/12/25 08:45:12;;;;;;;3.38;1.95;;;;;;;10.65;75.20;100565.13;4196705;28;20040;-68
2022/12/25 08:47:15;;;;;;;6.88;2.03;;;;;;;10.66;76.03;100560.81;4195463;28;20395;-68
2022/12/25 08:49:18;;;;;;;5.20;2.13;;;;;;;10.68;75.80;100561.69;4196735;28;20043;-69
2022/12/25 08:51:23;;;;;;;3.25;1.92;;;;;;;10.65;75.58;100564.25;4186604;28;20036;-68
2022/12/25 08:53:26;;;;;;;5.55;2.28;;;;;;;10.57;76.28;100564.13;4193256;28;20040;-69
2022/12/25 08:55:29;;;;;;;4.28;2.40;;;;;;;10.57;75.31;100566.75;4198638;28;20040;-69
2022/12/25 08:57:32;;;;;;;4.50;2.38;;;;;;;10.56;75.81;100579.72;4197100;28;20047;-68
2022/12/25 08:59:35;;;;;;;2.72;1.88;;;;;;;10.52;75.78;100578.78;4198944;28;20033;-68
2022/12/25 09:01:39;;;;;;;7.88;2.85;;;;;;;10.53;75.46;100584.84;4199623;28;20082;-68
2022/12/25 09:03:42;;;;;;;4.07;2.17;;;;;;;10.52;75.29;100591.78;4199497;28;20037;-68
2022/12/25 09:05:45;;;;;;;5.35;2.45;;;;;;;10.55;76.16;100588.34;4200006;28;20444;-69
2022/12/25 09:07:48;;;;;;;4.75;2.72;;;;;;;10.46;75.63;100600.34;4182065;28;20045;-68
2022/12/25 09:09:51;;;;;;;3.20;1.98;;;;;;;10.44;76.10;100598.56;4199821;28;20041;-68
2022/12/25 09:11:54;;;;;;;3.05;2.15;;;;;;;10.43;76.46;100610.69;4196516;28;20094;-69
2022/12/25 09:13:57;;;;;;;3.53;2.28;;;;;;;10.46;76.49;100608.13;4192404;28;20075;-68
2022/12/25 09:16:00;;;;;;;7.47;3.63;;;;;;;10.39;76.59;100614.06;4199637;28;20048;-68
2022/12/25 09:18:04;;;;;;;10.55;3.53;;;;;;;10.39;76.65;100616.66;4199691;28;20045;-69
2022/12/25 09:20:08;;;;;;;8.45;3.85;;;;;;;10.43;76.69;100615.03;4198374;28;20040;-69
2022/12/25 09:22:10;;;;;;;6.75;3.47;;;;;;;10.50;76.58;100616.88;4199507;28;20090;-68
2022/12/25 09:24:13;;;;;;;9.48;3.40;;;;;;;10.50;76.61;100616.88;4197881;28;20051;-68
2022/12/25 09:26:18;;;;;;;10.40;3.45;;;;;;;10.55;76.55;100610.00;4198140;28;20036;-68
2022/12/25 09:28:21;;;;;;;9.70;3.85;;;;;;;10.57;76.19;100613.53;4175699;28;20053;-68
2022/12/25 09:30:24;;;;;;;8.18;4.13;;;;;;;10.55;76.18;100610.00;4199339;28;20037;-68
2022/12/25 09:32:27;;;;;;;7.28;3.70;;;;;;;10.64;75.61;100605.00;4199457;28;20457;-68
2022/12/25 09:34:31;;;;;;;7.07;3.25;;;;;;;10.72;76.44;100610.31;4181166;28;20140;-68
2022/12/25 09:36:34;;;;;;;11.45;4.88;;;;;;;10.77;76.14;100606.03;4199350;28;20143;-68
2022/12/25 09:38:37;;;;;;;8.15;4.22;;;;;;;10.83;75.38;100595.75;4198095;28;20041;-69
2022/12/25 09:40:40;;;;;;;10.35;4.57;;;;;;;10.95;75.49;100594.16;4193288;28;20052;-68
2022/12/25 09:42:43;;;;;;;9.15;2.95;;;;;;;11.01;75.88;100599.47;4199106;28;20037;-69
2022/12/25 09:44:51;;;;;;;11.90;3.60;;;;;;;11.06;74.84;100600.41;4198947;28;20040;-69
2022/12/25 09:46:59;;;;;;;8.30;3.45;;;;;;;11.18;74.91;100587.59;4199330;28;20032;-68
2022/12/25 09:49:06;;;;;;;8.88;3.50;;;;;;;11.30;74.78;100580.78;4197967;28;20051;-68
2022/12/25 09:51:15;;;;;;;5.68;3.08;;;;;;;11.36;74.10;100575.66;4199020;28;20045;-69
2022/12/25 09:53:22;;;;;;;4.65;2.30;;;;;;;11.37;74.20;100580.00;4198854;28;20468;-68
2022/12/25 09:55:29;;;;;;;5.13;3.05;;;;;;;11.43;73.99;100560.97;4197678;28;20040;-68
2022/12/25 09:57:33;;;;;;;3.55;2.35;;;;;;;11.48;74.57;100564.53;4193168;28;20379;-68
2022/12/25 09:59:35;;;;;;;4.00;2.45;;;;;;;11.50;73.71;100568.00;4198895;28;20397;-69
2022/12/25 10:01:47;;;;;;;4.32;2.60;;;;;;;11.57;74.32;100559.41;4197568;28;20032;-68
2022/12/25 10:04:05;;;;;;;8.77;3.30;;;;;;;11.66;73.50;100548.25;4192869;28;20049;-68
2022/12/25 10:06:17;;;;;;;4.53;2.63;;;;;;;11.67;73.75;100544.78;4191725;28;20055;-68
2022/12/25 10:08:34;;;;;;;2.70;2.00;;;;;;;11.64;73.66;100545.63;4198827;28;20135;-69
2022/12/25 10:10:50;;;;;;;4.85;2.10;;;;;;;11.72;74.04;100543.09;4198753;28;20127;-68
2022/12/25 10:13:01;;;;;;;6.80;2.08;;;;;;;11.75;73.78;100542.25;4198851;28;20090;-68
2022/12/25 10:15:18;;;;;;;4.35;2.25;;;;;;;11.82;73.33;100529.31;4197287;28;20562;-69
2022/12/25 10:17:32;;;;;;;5.45;2.20;;;;;;;11.83;73.28;100520.63;4197519;28;20043;-69
2022/12/25 10:19:45;;;;;;;4.80;2.50;;;;;;;11.83;73.99;100517.19;4198649;28;20056;-69
2022/12/25 10:21:54;;;;;;;3.75;2.05;;;;;;;11.84;73.98;100525.00;4198623;28;20459;-68
2022/12/25 10:24:08;;;;;;;5.53;1.83;;;;;;;11.93;73.64;100528.53;4198261;28;20453;-69
2022/12/25 10:26:15;;;;;;;5.43;1.98;;;;;;;11.94;73.68;100523.38;4198727;28;20057;-68
2022/12/25 10:28:26;;;;;;;2.65;1.52;;;;;;;12.02;73.21;100523.47;4197338;28;20162;-68
2022/12/25 10:30:31;;;;;;;6.05;2.50;;;;;;;11.99;73.48;100519.09;4197407;28;20542;-68
2022/12/25 10:32:34;;;;;;;4.43;2.08;;;;;;;12.00;73.02;100514.75;4184635;28;20541;-68
2022/12/25 10:34:40;;;;;;;3.50;1.98;;;;;;;12.00;73.18;100515.63;4196335;28;20050;-68
2022/12/25 10:36:45;;;;;;;3.30;1.52;;;;;;;12.01;73.25;100513.91;4195873;28;20040;-68
2022/12/25 10:38:49;;;;;;;6.25;1.70;;;;;;;12.04;73.23;100519.13;4196882;28;20091;-69
2022/12/25 10:41:03;;;;;;;2.83;1.40;;;;;;;12.02;72.93;100518.25;4180373;28;20045;-68
2022/12/25 10:43:12;;;;;;;3.78;1.88;;;;;;;11.91;73.08;100520.72;4198065;28;20032;-67
2022/12/25 10:45:16;;;;;;;2.65;1.67;;;;;;;11.76;72.43;100537.06;4198051;28;20040;-67
2022/12/25 10:47:24;;;;;;;3.58;1.58;;;;;;;11.63;72.80;100528.25;4198202;28;20482;-68
2022/12/25 10:49:30;;;;;;;3.10;1.83;;;;;;;11.66;73.47;100528.28;4195789;28;20094;-68
2022/12/25 10:51:36;;;;;;;4.68;1.83;;;;;;;11.62;73.54;100525.63;4195858;28;20052;-69
2022/12/25 10:53:40;;;;;;;3.55;1.90;;;;;;;11.67;73.53;100523.97;4197634;28;20040;-68
2022/12/25 10:55:54;;;;;;;5.95;2.17;;;;;;;11.72;73.61;100517.03;4198294;28;20509;-69
2022/12/25 10:57:57;;;;;;;6.40;2.72;;;;;;;11.62;73.87;100518.69;4196726;28;20050;-69
2022/12/25 11:00:00;;;;;;;5.43;2.45;;;;;;;11.62;73.65;100516.09;4196829;28;20044;-68
2022/12/25 11:02:13;;;;;;;6.25;2.53;;;;;;;11.67;74.40;100508.31;4197884;28;20410;-69
2022/12/25 11:04:21;;;;;;;5.10;2.38;;;;;;;11.69;74.46;100506.59;4196414;28;20494;-68
2022/12/25 11:06:31;;;;;;;3.53;2.28;;;;;;;11.83;74.02;100499.81;4195119;28;20490;-69
2022/12/25 11:08:35;;;;;;;5.35;2.90;;;;;;;11.87;73.79;100501.59;4196462;28;20053;-69
2022/12/25 11:10:41;;;;;;;5.50;2.72;;;;;;;11.85;73.24;100507.63;4197757;28;20412;-69
2022/12/25 11:12:46;;;;;;;4.80;2.53;;;;;;;11.84;73.26;100505.88;4198097;28;20055;-69
2022/12/25 11:14:55;;;;;;;6.68;3.20;;;;;;;11.87;73.29;100511.09;4197520;28;20098;-69
2022/12/25 11:17:07;;;;;;;5.03;2.78;;;;;;;11.93;72.87;100515.50;4197117;28;20037;-68
2022/12/25 11:19:24;;;;;;;3.97;2.45;;;;;;;11.91;73.40;100515.50;4191371;28;20044;-68
2022/12/25 11:21:29;;;;;;;4.05;2.30;;;;;;;11.88;73.49;100515.47;4197604;28;20040;-69